KMVL/MVL METAR and TAF weather

Enter ICAO airport designator
Station Type Date Time Source
KMVL METAR 2018/12/19 02:54 UTC NOAA

KMVL 190254Z AUTO 33010G19KT 5SM -SN OVC027 M08/M12 A3007 RMK AO2 SLP198 P0000 60000 T10781122 53006


Station Type Date Time Source
KMVL Decoded METAR 2018/12/19 02:54 UTC NOAA

MORRISVILLE STOWE STATE AIRPORT , VT, United States (KMVL) 44-32N 72-37W 223M
Dec 18, 2018 - 09:54 PM EST / 2018.12.19 0254 UTC
Wind: from the NNW (330 degrees) at 12 MPH (10 KT) gusting to 22 MPH (19 KT):0
Visibility: 5 mile(s):0
Sky conditions: overcast
Weather: light snow
Precipitation last hour: A trace
Temperature: 18.0 F (-7.8 C)
Windchill: 5 F (-15 C):1
Dew Point: 10.0 F (-12.2 C)
Relative Humidity: 70%
Pressure (altimeter): 30.07 in. Hg (1018 hPa)
Pressure tendency: 0.02 inches (0.6 hPa) higher than three hours ago
ob: KMVL 190254Z AUTO 33010G19KT 5SM -SN OVC027 M08/M12 A3007 RMK AO2 SLP198 P0000 60000 T10781122 53006
cycle: 3

Station Type Date Time Source
KMVL TAF UTC NOAA

Error!


Example: see airport list